Time;durP1;ratioP1;P1;durP2;ratioP2;P2;SDS_P1;SDS_P2;PMS_P1;PMS_P2;Temp;Humidity;BMP_temperature;BMP_pressure;BME280_temperature;BME280_humidity;BME280_pressure;Samples;Min_cycle;Max_cycle;Signal;HPM_P1;HPM_P2
2022/03/19 00:02:11;;;;;;;232.57;92.37;;;;;;;-3.80;51.90;103013.75;1725678;83;25605;-73
2022/03/19 00:04:37;;;;;;;228.02;92.53;;;;;;;-3.84;51.98;103009.71;1725769;83;25577;-73
2022/03/19 00:07:04;;;;;;;232.35;95.67;;;;;;;-3.85;52.20;103013.32;1725590;83;25917;-72
2022/03/19 00:09:30;;;;;;;226.58;94.17;;;;;;;-3.88;52.28;103014.96;1725826;83;25552;-72
2022/03/19 00:11:57;;;;;;;227.10;86.42;;;;;;;-3.91;52.28;103017.07;1727666;82;27336;-72
2022/03/19 00:14:24;;;;;;;221.87;83.12;;;;;;;-3.95;52.53;103012.06;1729297;82;25433;-73
2022/03/19 00:16:52;;;;;;;267.10;137.47;;;;;;;-3.95;52.64;103016.03;1733398;82;25616;-72
2022/03/19 00:19:19;;;;;;;257.80;107.10;;;;;;;-3.96;52.82;103017.50;1733001;82;26285;-72
2022/03/19 00:21:46;;;;;;;265.40;118.02;;;;;;;-4.02;53.05;103012.31;1732997;82;25557;-72
2022/03/19 00:24:12;;;;;;;263.77;117.03;;;;;;;-4.08;52.96;103001.48;1733197;82;27996;-72
2022/03/19 00:26:38;;;;;;;263.43;110.50;;;;;;;-4.11;52.95;103012.34;1733110;82;25676;-72
2022/03/19 00:29:04;;;;;;;250.78;107.95;;;;;;;-4.14;53.24;103008.16;1732977;82;25422;-73
2022/03/19 00:31:31;;;;;;;274.27;159.43;;;;;;;-4.16;53.16;103015.41;1733185;82;26015;-72
2022/03/19 00:33:57;;;;;;;265.57;155.27;;;;;;;-4.21;53.37;103007.07;1733203;82;25740;-72
2022/03/19 00:36:24;;;;;;;269.10;151.97;;;;;;;-4.23;53.36;103005.06;1733107;82;28029;-73
2022/03/19 00:38:51;;;;;;;256.75;138.10;;;;;;;-4.26;53.29;103004.84;1733399;82;25478;-73
2022/03/19 00:41:17;;;;;;;239.32;97.22;;;;;;;-4.26;53.31;103011.45;1733117;82;25585;-73
2022/03/19 00:43:43;;;;;;;228.55;88.47;;;;;;;-4.27;53.34;103007.64;1732832;82;26033;-72
2022/03/19 00:46:11;;;;;;;250.18;95.07;;;;;;;-4.30;53.40;103012.73;1734828;82;25264;-71
2022/03/19 00:48:38;;;;;;;210.65;87.30;;;;;;;-4.34;53.47;103016.16;1735588;82;27542;-71
2022/03/19 00:51:04;;;;;;;221.95;87.95;;;;;;;-4.36;53.66;103012.83;1735272;82;25296;-72
2022/03/19 00:53:31;;;;;;;247.33;99.80;;;;;;;-4.39;53.75;103009.14;1735487;82;25160;-72
2022/03/19 00:55:57;;;;;;;231.63;94.72;;;;;;;-4.41;53.64;103002.32;1735256;82;25982;-71
2022/03/19 00:58:36;;;;;;;221.47;90.90;;;;;;;-4.42;53.11;103007.28;1735047;82;25427;-72
2022/03/19 01:00:57;;;;;;;259.60;151.57;;;;;;;-4.46;53.45;103005.87;1699016;82;26318;-72
2022/03/19 01:03:23;;;;;;;263.27;151.47;;;;;;;-4.51;53.57;103011.61;1733564;82;25534;-73
2022/03/19 01:05:50;;;;;;;255.65;150.70;;;;;;;-4.56;53.61;103009.88;1699957;82;25592;-73
2022/03/19 01:08:16;;;;;;;254.68;147.20;;;;;;;-4.60;53.88;103005.84;1733585;82;25908;-73
2022/03/19 01:10:43;;;;;;;259.92;149.60;;;;;;;-4.65;54.17;102998.83;1686293;84;25205;-73
2022/03/19 01:13:09;;;;;;;227.28;84.42;;;;;;;-4.68;54.34;102992.03;1699502;84;27349;-73
2022/03/19 01:15:36;;;;;;;222.35;87.62;;;;;;;-4.70;54.43;102995.28;1696071;84;25815;-73
2022/03/19 01:18:03;;;;;;;241.95;112.68;;;;;;;-4.73;54.51;102998.23;1699566;84;25563;-73
2022/03/19 01:20:30;;;;;;;267.87;142.13;;;;;;;-4.74;54.68;102996.05;1696427;84;25988;-72
2022/03/19 01:22:59;;;;;;;257.35;108.32;;;;;;;-4.75;54.16;102990.91;1696965;84;25576;-73
2022/03/19 01:25:25;;;;;;;266.27;128.35;;;;;;;-4.79;53.68;102989.53;1717508;82;27332;-72
2022/03/19 01:27:52;;;;;;;237.85;102.05;;;;;;;-4.82;54.01;102987.17;1717305;82;25244;-72
2022/03/19 01:30:21;;;;;;;264.35;115.65;;;;;;;-4.83;54.11;102989.48;1745014;82;25583;-72
2022/03/19 01:32:49;;;;;;;249.60;105.65;;;;;;;-4.83;54.32;102993.44;1745066;82;26028;-72
2022/03/19 01:35:18;;;;;;;278.48;116.08;;;;;;;-4.88;54.28;102984.12;1717426;82;25661;-72
2022/03/19 01:37:46;;;;;;;245.97;102.22;;;;;;;-4.90;54.70;102990.53;1744874;82;27369;-71
2022/03/19 01:40:15;;;;;;;274.02;121.13;;;;;;;-4.97;54.66;102990.71;1744668;82;25402;-71
2022/03/19 01:42:46;;;;;;;269.52;115.35;;;;;;;-4.99;54.66;102994.81;1744844;82;25609;-72
2022/03/19 01:45:17;;;;;;;264.17;114.37;;;;;;;-5.01;54.80;103000.72;1744660;82;25945;-72
2022/03/19 01:47:43;;;;;;;277.85;116.60;;;;;;;-5.04;55.01;102996.20;1745945;82;25444;-73
2022/03/19 01:50:12;;;;;;;257.07;109.72;;;;;;;-5.12;55.34;103000.38;1746028;82;27374;-73
2022/03/19 01:52:40;;;;;;;291.20;124.78;;;;;;;-5.19;55.58;102993.99;1744529;82;25553;-73
2022/03/19 01:55:09;;;;;;;270.63;119.00;;;;;;;-5.17;55.77;102998.64;1744453;82;25440;-73
2022/03/19 01:57:40;;;;;;;273.60;119.20;;;;;;;-5.18;55.90;103000.09;1744548;82;26778;-74
2022/03/19 02:00:09;;;;;;;270.15;118.08;;;;;;;-5.21;56.10;102999.05;1744372;82;25537;-74
2022/03/19 02:02:35;;;;;;;;;;;;;;;-5.24;56.30;102996.22;1747083;82;27945;-73
2022/03/19 02:05:03;;;;;;;248.53;103.72;;;;;;;-5.29;56.47;102997.94;1744384;82;25458;-73
2022/03/19 02:07:31;;;;;;;273.10;109.37;;;;;;;-5.33;56.51;102994.38;1696556;84;25651;-73
2022/03/19 02:10:00;;;;;;;263.65;104.07;;;;;;;-5.32;56.16;102992.92;1744470;82;25971;-73
2022/03/19 02:12:27;;;;;;;278.73;116.90;;;;;;;-5.30;55.99;102998.06;1744461;82;25458;-73
2022/03/19 02:14:54;;;;;;;271.43;114.90;;;;;;;-5.30;56.38;102996.75;1744323;82;27305;-73
2022/03/19 02:17:21;;;;;;;291.90;120.33;;;;;;;-5.31;56.66;102995.92;1744155;81;25391;-73
2022/03/19 02:19:54;;;;;;;278.45;156.40;;;;;;;-5.32;56.68;102998.20;1744186;82;25575;-74
2022/03/19 02:22:23;;;;;;;266.88;150.60;;;;;;;-5.35;57.20;102994.52;1744194;82;25973;-74
2022/03/19 02:27:36;;;;;;;269.43;148.68;;;;;;;-5.40;57.28;102995.41;1744209;82;27345;-72
2022/03/19 02:30:06;;;;;;;245.20;148.45;;;;;;;-5.44;57.35;102990.89;1744108;82;25568;-72
2022/03/19 02:32:34;;;;;;;259.02;145.50;;;;;;;-5.45;57.60;102993.66;1744223;81;25645;-73
2022/03/19 02:35:01;;;;;;;256.13;146.05;;;;;;;-5.45;57.41;102997.16;1744101;82;25997;-73
2022/03/19 02:37:41;;;;;;;250.40;144.68;;;;;;;-5.43;57.46;102997.02;1744229;81;25198;-73
2022/03/19 02:40:12;;;;;;;231.38;136.55;;;;;;;-5.45;57.32;102992.34;1744235;82;27513;-73
2022/03/19 02:42:39;;;;;;;179.70;123.97;;;;;;;-5.42;57.75;102992.08;1744111;81;25633;-73
2022/03/19 02:45:08;;;;;;;214.27;130.82;;;;;;;-5.37;57.84;102993.83;1744165;82;25412;-73
2022/03/19 02:47:56;;;;;;;148.38;91.80;;;;;;;-5.29;58.14;103001.06;1744284;82;25989;-74
2022/03/19 02:50:03;;;;;;;193.72;127.20;;;;;;;-5.26;57.74;103003.44;1739717;82;25571;-73
2022/03/19 02:52:29;;;;;;;237.42;135.45;;;;;;;-5.22;58.05;103002.18;1744265;81;27268;-73
2022/03/19 02:54:55;;;;;;;244.47;142.05;;;;;;;-5.19;57.71;102996.63;1744126;82;25637;-73
2022/03/19 02:57:22;;;;;;;230.35;140.03;;;;;;;-5.17;57.78;102997.81;1744249;82;25390;-73
2022/03/19 02:59:48;;;;;;;218.02;131.67;;;;;;;-5.16;57.70;103002.96;1744213;82;26044;-73
2022/03/19 03:02:15;;;;;;;229.87;137.03;;;;;;;-5.14;57.40;103002.80;1744277;82;25430;-73
2022/03/19 03:04:41;;;;;;;242.32;142.13;;;;;;;-5.12;57.75;103006.16;1744246;81;27329;-73
2022/03/19 03:07:07;;;;;;;267.37;144.07;;;;;;;-5.11;57.30;103006.48;1744159;81;25617;-73
2022/03/19 03:09:34;;;;;;;254.75;141.50;;;;;;;-5.10;57.38;103015.59;1744217;82;25558;-73
2022/03/19 03:12:01;;;;;;;242.68;143.35;;;;;;;-5.12;57.44;103008.30;1744218;81;26130;-73
2022/03/19 03:14:29;;;;;;;236.43;140.22;;;;;;;-5.14;57.39;103006.75;1744154;82;25434;-73
2022/03/19 03:17:00;;;;;;;238.18;142.75;;;;;;;-5.15;57.56;103008.57;1725930;82;27935;-73
2022/03/19 03:19:27;;;;;;;248.05;142.43;;;;;;;-5.18;57.83;103000.92;1747544;82;25461;-73
2022/03/19 03:21:54;;;;;;;252.40;142.05;;;;;;;-5.17;57.59;103007.88;1747611;82;25447;-73
2022/03/19 03:24:22;;;;;;;239.93;140.90;;;;;;;-5.18;57.48;103001.41;1747513;82;25886;-73
2022/03/19 03:26:49;;;;;;;246.35;138.68;;;;;;;-5.19;57.52;103001.05;1747621;82;25454;-73
2022/03/19 03:29:15;;;;;;;228.12;137.10;;;;;;;-5.19;57.90;103003.70;1747592;82;27302;-73
2022/03/19 03:31:42;;;;;;;255.90;142.18;;;;;;;-5.22;57.79;102999.54;1747499;82;25440;-74
2022/03/19 03:34:09;;;;;;;266.42;142.32;;;;;;;-5.23;57.92;103010.23;1747611;82;25585;-74
2022/03/19 03:36:35;;;;;;;247.55;142.25;;;;;;;-5.25;57.92;103013.00;1747536;82;25909;-74
2022/03/19 03:39:02;;;;;;;250.57;142.90;;;;;;;-5.25;58.09;103011.69;1747621;82;25401;-74
2022/03/19 03:41:29;;;;;;;231.35;142.22;;;;;;;-5.32;58.24;103006.12;1747588;82;28104;-74
2022/03/19 03:43:55;;;;;;;233.07;142.00;;;;;;;-5.29;57.86;103007.66;1747520;82;25529;-74
2022/03/19 03:46:22;;;;;;;237.55;140.60;;;;;;;-5.30;58.09;103016.05;1747603;82;25386;-74
2022/03/19 03:48:48;;;;;;;243.60;145.65;;;;;;;-5.33;58.20;103017.66;1747552;82;26499;-73
2022/03/19 03:51:15;;;;;;;233.35;140.25;;;;;;;-5.34;58.14;103019.94;1747634;82;25564;-73
2022/03/19 03:53:47;;;;;;;237.68;140.57;;;;;;;-5.38;58.22;103019.02;1747638;82;27340;-73
2022/03/19 03:56:14;;;;;;;248.40;140.35;;;;;;;-5.41;58.37;103021.92;1747480;82;25455;-73
2022/03/19 03:58:41;;;;;;;225.90;137.15;;;;;;;-5.44;58.68;103015.95;1747732;82;25514;-73
2022/03/19 04:01:09;;;;;;;230.12;136.55;;;;;;;-5.45;58.67;103030.13;1747698;82;26000;-74
2022/03/19 04:03:36;;;;;;;244.93;139.90;;;;;;;-5.44;58.84;103041.52;1747761;82;25563;-73
2022/03/19 04:06:03;;;;;;;228.92;141.80;;;;;;;-5.44;58.84;103041.52;1747744;82;27317;-73
2022/03/19 04:08:29;;;;;;;240.12;140.55;;;;;;;-5.58;58.84;103021.62;1689922;84;25438;-73
2022/03/19 04:10:56;;;;;;;216.05;138.10;;;;;;;-5.63;58.92;103018.06;1719215;83;25616;-73
2022/03/19 04:13:22;;;;;;;223.25;137.30;;;;;;;-5.65;58.97;103033.20;1719188;83;25916;-73
2022/03/19 04:15:50;;;;;;;217.65;136.60;;;;;;;-5.69;59.34;103028.31;1720250;82;25565;-73
2022/03/19 04:18:16;;;;;;;219.25;134.70;;;;;;;-5.73;59.38;103025.61;1726203;83;28021;-73
2022/03/19 04:20:43;;;;;;;229.15;132.87;;;;;;;-5.73;59.38;103025.61;1726096;83;25411;-73
2022/03/19 04:23:09;;;;;;;202.20;129.18;;;;;;;-5.77;59.46;103029.00;1726168;83;25565;-73
2022/03/19 04:25:35;;;;;;;203.02;126.33;;;;;;;-5.80;59.57;103028.44;1733970;82;26107;-73
2022/03/19 04:28:02;;;;;;;200.95;124.70;;;;;;;-5.83;59.74;103031.66;1726215;83;25141;-73
2022/03/19 04:30:30;;;;;;;191.85;120.62;;;;;;;-5.83;59.79;103036.94;1726181;83;27875;-73
2022/03/19 04:33:01;;;;;;;165.32;118.37;;;;;;;-5.83;59.79;103036.94;1726093;83;25612;-73
2022/03/19 04:38:17;;;;;;;172.62;117.08;;;;;;;-5.89;59.60;103032.21;1726610;83;26507;-73
2022/03/19 04:40:45;;;;;;;;;;;;;;;-5.93;59.68;103039.19;1729540;83;25376;-73
2022/03/19 04:43:12;;;;;;;162.22;113.95;;;;;;;-5.90;59.81;103038.44;1726285;83;27499;-73
2022/03/19 04:45:41;;;;;;;157.20;111.68;;;;;;;-5.89;60.02;103040.58;1726071;83;25654;-73
2022/03/19 04:48:07;;;;;;;159.85;112.32;;;;;;;-5.92;59.85;103034.28;1709671;83;25474;-73
2022/03/19 04:50:39;;;;;;;171.28;119.60;;;;;;;-5.88;59.77;103041.77;1726141;83;26104;-73
2022/03/19 04:53:07;;;;;;;169.22;115.62;;;;;;;-5.87;59.83;103037.36;1726183;83;25462;-73
2022/03/19 04:55:36;;;;;;;168.97;118.55;;;;;;;-5.88;59.90;103030.41;1726192;83;27382;-73
2022/03/19 04:58:04;;;;;;;123.42;84.77;;;;;;;-5.86;59.93;103034.56;1726197;83;25391;-73
2022/03/19 05:00:32;;;;;;;186.37;123.72;;;;;;;-5.83;59.96;103029.03;1726141;83;25555;-73
2022/03/19 05:02:58;;;;;;;206.93;122.90;;;;;;;-5.80;60.21;103041.13;1726065;83;25933;-73
2022/03/19 05:05:25;;;;;;;187.20;125.15;;;;;;;-5.78;60.16;103044.45;1726197;83;25547;-73
2022/03/19 05:07:54;;;;;;;184.18;121.02;;;;;;;-5.81;60.42;103030.22;1726128;83;27316;-73
2022/03/19 05:13:08;;;;;;;189.30;122.30;;;;;;;-5.79;60.54;103045.41;1726194;83;25563;-73
2022/03/19 05:15:35;;;;;;;206.00;128.15;;;;;;;-5.74;60.69;103043.70;1711136;83;25935;-73
2022/03/19 05:18:01;;;;;;;197.47;124.25;;;;;;;-5.70;60.81;103047.27;1726097;82;25530;-73
2022/03/19 05:20:28;;;;;;;207.03;122.47;;;;;;;-5.66;60.85;103047.83;1726138;83;27390;-73
2022/03/19 05:22:55;;;;;;;203.02;124.67;;;;;;;-5.61;60.95;103048.27;1709482;83;25571;-73
2022/03/19 05:25:21;;;;;;;205.32;125.90;;;;;;;-5.52;60.62;103054.53;1726138;83;25440;-73
2022/03/19 05:27:47;;;;;;;189.25;125.35;;;;;;;-5.43;60.67;103055.06;1726122;83;25997;-73
2022/03/19 05:30:14;;;;;;;224.80;130.97;;;;;;;-5.35;60.67;103057.02;1726169;83;25559;-73
2022/03/19 05:32:40;;;;;;;209.37;128.05;;;;;;;-5.26;60.87;103051.77;1726111;83;27421;-73
2022/03/19 05:35:08;;;;;;;200.03;126.87;;;;;;;-5.14;60.98;103053.80;1709333;83;25566;-73
2022/03/19 05:37:34;;;;;;;196.87;128.00;;;;;;;-5.03;61.09;103048.87;1711209;83;25467;-73
2022/03/19 05:40:07;;;;;;;214.32;130.97;;;;;;;-4.91;61.14;103057.00;1726090;83;25935;-73
2022/03/19 05:42:33;;;;;;;207.45;92.75;;;;;;;-4.76;61.16;103055.28;1726196;83;25570;-73
2022/03/19 05:45:00;;;;;;;210.60;86.50;;;;;;;-4.58;61.14;103058.03;1709296;83;27357;-73
2022/03/19 05:47:26;;;;;;;187.40;76.67;;;;;;;-4.43;61.20;103063.23;1726041;83;25555;-74
2022/03/19 05:49:53;;;;;;;193.35;81.97;;;;;;;-4.27;61.29;103060.50;1726136;83;25403;-73
2022/03/19 05:52:20;;;;;;;211.95;87.30;;;;;;;-4.11;61.18;103067.85;1726076;83;25919;-74
2022/03/19 05:54:46;;;;;;;203.20;83.82;;;;;;;-3.91;61.36;103075.25;1711212;83;25653;-74
2022/03/19 05:57:13;;;;;;;198.60;129.60;;;;;;;-3.73;61.39;103078.77;1726123;83;27380;-74
2022/03/19 05:59:40;;;;;;;197.93;127.95;;;;;;;-3.44;61.45;103087.08;1726082;83;25618;-74
2022/03/19 06:02:06;;;;;;;189.60;83.15;;;;;;;-3.28;61.58;103068.75;1726136;83;25455;-74
2022/03/19 06:04:34;;;;;;;191.45;82.40;;;;;;;-2.97;61.29;103079.50;1709167;83;26108;-74
2022/03/19 06:07:01;;;;;;;197.98;84.10;;;;;;;-2.69;61.13;103083.75;1709097;83;25629;-74
2022/03/19 06:09:28;;;;;;;202.62;84.30;;;;;;;-2.39;60.86;103084.81;1726120;83;27400;-75
2022/03/19 06:11:55;;;;;;;187.57;78.62;;;;;;;-2.11;60.82;103078.86;1726067;83;25376;-75
2022/03/19 06:14:22;;;;;;;183.95;79.32;;;;;;;-1.78;60.63;103089.69;1726119;83;25629;-75
2022/03/19 06:16:49;;;;;;;200.65;84.80;;;;;;;-1.48;60.41;103091.00;1726030;83;25924;-75
2022/03/19 06:19:17;;;;;;;186.10;81.97;;;;;;;-1.15;60.04;103093.75;1726133;83;25399;-75
2022/03/19 06:21:45;;;;;;;190.70;79.97;;;;;;;-0.81;59.91;103094.16;1726124;83;27980;-75
2022/03/19 06:24:11;;;;;;;187.27;80.62;;;;;;;-0.45;59.80;103091.19;1726044;83;25771;-75
2022/03/19 06:26:39;;;;;;;200.93;105.90;;;;;;;-0.07;59.69;103092.80;1685246;83;25524;-75
2022/03/19 06:29:06;;;;;;;204.60;85.40;;;;;;;0.30;59.00;103095.38;1726049;83;25910;-75
2022/03/19 06:31:33;;;;;;;186.97;80.75;;;;;;;0.68;58.50;103104.88;1726166;83;25412;-75
2022/03/19 06:33:59;;;;;;;176.85;78.00;;;;;;;1.04;57.50;103103.88;1726116;83;27321;-75
2022/03/19 06:39:12;;;;;;;159.70;70.47;;;;;;;1.87;56.55;103117.39;1726362;82;25416;-76
2022/03/19 06:41:39;;;;;;;156.43;70.52;;;;;;;2.33;55.55;103115.91;1726114;83;25932;-76
2022/03/19 06:44:06;;;;;;;135.35;64.05;;;;;;;2.79;54.94;103127.73;1726173;83;25616;-76
2022/03/19 06:46:32;;;;;;;124.67;57.53;;;;;;;3.22;54.27;103130.14;1726177;83;27915;-76
2022/03/19 06:48:59;;;;;;;119.57;55.28;;;;;;;3.63;53.09;103124.17;1726126;83;25714;-76
2022/03/19 06:51:25;;;;;;;99.50;43.02;;;;;;;4.03;52.40;103123.95;1726174;83;25216;-76
2022/03/19 06:53:52;;;;;;;100.90;46.15;;;;;;;4.50;50.92;103128.27;1726220;83;26573;-77
2022/03/19 06:56:18;;;;;;;95.35;46.55;;;;;;;4.89;50.19;103129.46;1726283;83;25495;-76
2022/03/19 06:58:45;;;;;;;91.00;45.90;;;;;;;5.36;49.29;103126.88;1711414;83;27474;-76
2022/03/19 07:01:16;;;;;;;91.75;45.05;;;;;;;5.79;48.38;103129.20;1726323;83;25636;-76
2022/03/19 07:03:44;;;;;;;90.77;46.58;;;;;;;6.21;47.30;103139.19;1729024;83;25165;-75
2022/03/19 07:06:12;;;;;;;118.57;59.93;;;;;;;6.65;46.76;103130.89;1729310;83;26069;-74
2022/03/19 07:08:38;;;;;;;114.28;54.65;;;;;;;7.14;46.21;103132.63;1729295;83;25200;-75
2022/03/19 07:11:05;;;;;;;99.70;50.20;;;;;;;7.62;45.55;103142.05;1728964;82;27452;-74
2022/03/19 07:13:32;;;;;;;91.63;45.60;;;;;;;8.04;44.78;103135.04;1728836;83;25209;-75
2022/03/19 07:15:59;;;;;;;87.95;43.85;;;;;;;8.53;44.00;103132.99;1728874;82;25224;-75
2022/03/19 07:18:26;;;;;;;76.60;42.20;;;;;;;8.96;42.87;103128.83;1728737;83;26071;-75
2022/03/19 07:20:52;;;;;;;77.15;38.60;;;;;;;9.42;41.88;103133.26;1727079;83;25412;-75
2022/03/19 07:23:19;;;;;;;66.77;35.30;;;;;;;9.84;40.80;103131.85;1711786;83;27412;-76
2022/03/19 07:25:45;;;;;;;64.45;35.17;;;;;;;10.26;39.89;103128.98;1726759;83;25376;-76
2022/03/19 07:28:15;;;;;;;51.90;30.97;;;;;;;10.68;38.83;103133.95;1726681;83;25463;-76
2022/03/19 07:30:42;;;;;;;54.18;29.35;;;;;;;11.05;37.55;103130.85;1727733;83;25828;-75
2022/03/19 07:33:08;;;;;;;93.62;84.17;;;;;;;11.45;36.84;103138.08;1729008;83;25213;-75
2022/03/19 07:35:35;;;;;;;48.13;27.45;;;;;;;11.83;36.46;103139.22;1729226;83;27437;-74
2022/03/19 07:38:02;;;;;;;51.90;29.50;;;;;;;12.22;35.57;103146.86;1729268;83;25453;-75
2022/03/19 07:43:14;;;;;;;45.95;25.72;;;;;;;12.94;34.65;103145.05;1726649;83;26044;-76
2022/03/19 07:45:42;;;;;;;43.95;25.08;;;;;;;13.30;33.22;103146.76;1726424;83;25560;-77
2022/03/19 07:48:10;;;;;;;36.55;19.15;;;;;;;13.63;32.75;103151.69;1726532;83;27400;-76
2022/03/19 07:50:38;;;;;;;39.38;20.23;;;;;;;13.88;31.79;103150.25;1726339;83;25716;-74
2022/03/19 07:53:06;;;;;;;39.90;20.30;;;;;;;14.22;31.50;103153.45;1726351;83;25633;-74
2022/03/19 07:55:36;;;;;;;29.30;17.15;;;;;;;14.36;30.89;103157.32;1709641;83;26466;-76
2022/03/19 07:58:04;;;;;;;26.42;14.80;;;;;;;14.30;30.42;103157.55;1726244;83;25649;-75
2022/03/19 08:00:31;;;;;;;26.80;16.17;;;;;;;14.02;29.96;103152.78;1726036;83;27323;-77
2022/03/19 08:02:59;;;;;;;30.88;16.55;;;;;;;13.90;29.92;103153.52;1726149;83;25552;-75
2022/03/19 08:05:25;;;;;;;28.23;17.02;;;;;;;13.76;29.53;103159.41;1726242;83;25611;-76
2022/03/19 08:07:51;;;;;;;29.02;15.23;;;;;;;13.69;28.95;103158.81;1726107;82;25881;-75
2022/03/19 08:10:18;;;;;;;21.15;14.07;;;;;;;13.63;29.01;103163.92;1726234;82;25446;-75
2022/03/19 08:12:46;;;;;;;18.87;12.13;;;;;;;13.63;29.08;103158.48;1726162;83;28036;-75
2022/03/19 08:15:13;;;;;;;19.65;12.28;;;;;;;13.74;28.70;103164.30;1691632;84;25727;-75
2022/03/19 08:17:42;;;;;;;19.98;11.93;;;;;;;13.77;28.10;103170.58;1668668;84;25445;-75
2022/03/19 08:20:10;;;;;;;23.12;12.05;;;;;;;13.62;28.01;103172.63;1714259;83;25931;-75
2022/03/19 08:22:38;;;;;;;19.57;11.38;;;;;;;13.63;28.18;103170.72;1715906;83;25435;-76
2022/03/19 08:25:07;;;;;;;20.80;11.55;;;;;;;13.74;27.97;103171.09;1714758;83;27952;-77
2022/03/19 08:27:33;;;;;;;17.65;10.28;;;;;;;13.85;27.61;103163.81;1708777;83;25426;-77
2022/03/19 08:30:02;;;;;;;16.93;11.43;;;;;;;13.79;27.17;103167.05;1711980;83;25551;-75
2022/03/19 08:32:28;;;;;;;15.90;10.08;;;;;;;13.83;27.27;103170.06;1710401;83;26481;-77
2022/03/19 08:34:55;;;;;;;15.80;9.58;;;;;;;13.97;27.04;103169.07;1715165;83;25681;-78
2022/03/19 08:37:22;;;;;;;17.27;11.20;;;;;;;14.13;26.80;103174.91;1716798;83;27321;-76
2022/03/19 08:42:34;;;;;;;21.77;11.22;;;;;;;14.33;26.61;103166.02;1717709;83;25636;-77
2022/03/19 08:45:00;;;;;;;18.85;11.50;;;;;;;14.44;26.28;103168.27;1712172;83;26492;-77
2022/03/19 08:47:29;;;;;;;21.55;13.35;;;;;;;14.51;26.14;103168.02;1714185;83;25651;-77
2022/03/19 08:49:56;;;;;;;22.80;13.15;;;;;;;14.61;26.05;103169.45;1712762;83;27333;-77
2022/03/19 08:52:22;;;;;;;21.33;12.00;;;;;;;14.78;26.00;103172.50;1701903;83;25828;-77
2022/03/19 08:54:49;;;;;;;22.80;11.33;;;;;;;14.94;26.04;103164.66;1723125;83;25667;-78
2022/03/19 08:57:15;;;;;;;17.15;9.95;;;;;;;15.12;25.52;103173.70;1722865;83;26610;-76
2022/03/19 08:59:42;;;;;;;16.23;9.03;;;;;;;15.16;24.86;103167.16;1723056;83;25561;-77
2022/03/19 09:02:08;;;;;;;15.00;8.55;;;;;;;15.08;24.62;103172.58;1719235;82;27912;-76
2022/03/19 09:04:36;;;;;;;14.87;9.60;;;;;;;15.19;24.48;103165.26;1721353;83;25295;-77
2022/03/19 09:07:04;;;;;;;12.58;9.20;;;;;;;15.31;24.63;103167.73;1715061;83;25578;-75
2022/03/19 09:09:31;;;;;;;12.18;8.68;;;;;;;15.37;24.24;103165.27;1720663;83;26160;-75
2022/03/19 09:11:57;;;;;;;15.55;9.13;;;;;;;15.47;23.87;103165.27;1720850;83;25216;-76
2022/03/19 09:14:24;;;;;;;12.55;8.15;;;;;;;15.47;24.00;103169.36;1720828;83;27319;-77
2022/03/19 09:16:50;;;;;;;17.30;8.25;;;;;;;15.53;23.38;103170.20;1717758;83;25410;-76
2022/03/19 09:19:17;;;;;;;12.70;8.93;;;;;;;15.47;23.45;103167.99;1693136;84;25590;-75
2022/03/19 09:21:43;;;;;;;15.75;9.03;;;;;;;15.49;22.87;103165.84;1693036;84;26521;-75
2022/03/19 09:24:10;;;;;;;11.35;7.97;;;;;;;15.37;22.69;103163.09;1692864;83;25735;-75
2022/03/19 09:26:36;;;;;;;11.70;7.95;;;;;;;15.43;22.87;103163.38;1719176;83;27413;-75
2022/03/19 09:29:03;;;;;;;15.30;8.35;;;;;;;15.61;23.03;103169.66;1719097;83;25692;-75
2022/03/19 09:31:30;;;;;;;12.05;7.58;;;;;;;15.82;23.00;103167.76;1719325;83;25873;-76
2022/03/19 09:33:59;;;;;;;14.20;8.88;;;;;;;16.03;22.88;103175.91;1719523;83;26606;-76
2022/03/19 09:36:25;;;;;;;11.83;7.58;;;;;;;16.35;22.62;103173.38;1720228;83;25735;-75
2022/03/19 09:38:52;;;;;;;12.28;8.15;;;;;;;16.59;22.58;103177.10;1720730;83;27365;-75
2022/03/19 09:41:19;;;;;;;34.38;31.30;;;;;;;16.73;21.84;103173.21;1703075;83;25395;-74
2022/03/19 09:43:45;;;;;;;16.77;8.73;;;;;;;16.69;22.04;103178.17;1725191;83;25618;-75
2022/03/19 09:46:12;;;;;;;39.88;36.83;;;;;;;16.83;21.80;103179.74;1725190;83;25926;-76
2022/03/19 09:48:38;;;;;;;12.00;8.20;;;;;;;16.97;20.88;103180.77;1690221;84;25419;-75
2022/03/19 09:51:11;;;;;;;15.80;8.60;;;;;;;16.76;21.19;103179.48;1712302;83;27336;-75
2022/03/19 09:53:40;;;;;;;12.73;8.23;;;;;;;16.74;20.38;103179.52;1717408;82;25800;-74
2022/03/19 09:56:07;;;;;;;11.95;8.20;;;;;;;16.72;21.09;103183.89;1721042;83;25603;-74
2022/03/19 09:58:33;;;;;;;12.50;7.97;;;;;;;16.77;20.62;103180.30;1721059;83;26592;-74
2022/03/19 10:01:06;;;;;;;13.00;11.55;;;;;;;16.69;20.88;103175.44;1720951;83;25416;-75
2022/03/19 10:03:39;;;;;;;12.70;8.15;;;;;;;16.96;21.40;103175.86;1721010;83;27894;-76
2022/03/19 10:09:00;;;;;;;24.30;15.03;;;;;;;17.36;21.11;103167.10;1694535;83;25697;-75
2022/03/19 10:11:33;;;;;;;12.43;8.70;;;;;;;17.82;20.87;103169.19;1714134;83;25930;-74
2022/03/19 10:14:06;;;;;;;10.43;8.35;;;;;;;17.99;20.61;103167.41;1701036;83;25596;-75
2022/03/19 10:16:39;;;;;;;14.23;9.43;;;;;;;18.27;20.25;103177.52;1860351;76;25542;-75
2022/03/19 10:19:07;;;;;;;10.58;7.95;;;;;;;18.10;19.64;103171.69;1819528;78;25371;-75
2022/03/19 10:21:41;;;;;;;12.47;7.95;;;;;;;17.94;19.79;103176.48;1824607;78;28021;-75
2022/03/19 10:24:24;;;;;;;9.43;7.35;;;;;;;17.87;19.15;103167.80;1824512;78;25636;-76
2022/03/19 10:26:51;;;;;;;12.90;8.00;;;;;;;17.83;19.07;103156.59;1824687;78;25436;-74
2022/03/19 10:29:28;;;;;;;11.65;7.42;;;;;;;17.72;19.21;103163.25;1824427;78;25713;-76
2022/03/19 10:32:03;;;;;;;10.80;8.20;;;;;;;17.77;18.02;103161.03;1824635;78;25373;-75
2022/03/19 10:34:30;;;;;;;16.10;13.60;;;;;;;17.49;18.44;103162.91;1824682;78;27454;-74
2022/03/19 10:36:57;;;;;;;61.13;56.92;;;;;;;17.53;18.93;103159.05;1824801;78;25581;-74
2022/03/19 10:39:27;;;;;;;80.28;75.25;;;;;;;17.62;19.21;103157.34;1827496;77;25581;-75
2022/03/19 10:41:58;;;;;;;11.53;7.65;;;;;;;17.76;19.46;103154.75;1824843;76;25640;-74
2022/03/19 10:44:28;;;;;;;12.45;8.63;;;;;;;18.12;19.36;103158.52;1827194;78;25379;-75
2022/03/19 10:47:02;;;;;;;13.55;8.95;;;;;;;18.34;19.43;103151.67;1824286;78;27474;-75
2022/03/19 10:49:30;;;;;;;12.07;8.15;;;;;;;18.65;18.71;103161.72;1824172;78;25423;-75
2022/03/19 10:52:04;;;;;;;12.88;8.33;;;;;;;18.74;18.73;103159.93;1824322;78;25299;-74
2022/03/19 10:54:31;;;;;;;14.98;8.80;;;;;;;18.92;18.73;103159.73;1831864;77;25566;-74
2022/03/19 10:56:58;;;;;;;14.90;8.60;;;;;;;19.15;18.77;103150.33;1779555;80;25721;-75
2022/03/19 10:59:27;;;;;;;13.32;7.55;;;;;;;19.22;18.49;103152.97;1786185;80;27468;-75
2022/03/19 11:01:55;;;;;;;17.67;11.65;;;;;;;19.31;17.92;103148.98;1765645;80;25746;-74
2022/03/19 11:04:23;;;;;;;11.85;8.30;;;;;;;18.85;17.51;103150.49;1756794;81;25670;-74
2022/03/19 11:06:52;;;;;;;14.28;8.93;;;;;;;18.60;17.32;103130.25;1781641;80;25600;-74
2022/03/19 11:09:23;;;;;;;11.75;7.97;;;;;;;18.28;17.92;103139.41;1786551;80;25754;-69
2022/03/19 11:11:59;;;;;;;14.25;10.48;;;;;;;18.18;18.24;103138.72;1722712;82;27408;-75
2022/03/19 11:14:31;;;;;;;77.58;72.25;;;;;;;18.33;18.05;103144.02;1786656;80;25846;-74
2022/03/19 11:17:24;;;;;;;74.15;68.90;;;;;;;18.33;17.75;103133.62;1789179;80;25595;-74
2022/03/19 11:19:57;;;;;;;53.52;49.70;;;;;;;14.78;17.82;102531.73;1789219;80;25601;-69
2022/03/19 11:22:23;;;;;;;79.32;73.57;;;;;;;;;;1787900;80;26308;-70
2022/03/19 11:25:13;;;;;;;78.40;72.65;;;;;;;;;;1791525;80;29234;-70
2022/03/19 11:27:41;;;;;;;78.05;71.80;;;;;;;;;;1786885;80;25681;-75
2022/03/19 11:30:26;;;;;;;19.15;7.58;;;;;;;;;;1792156;80;25569;-69